Time;durP1;ratioP1;P1;durP2;ratioP2;P2;SDS_P1;SDS_P2;PMS_P1;PMS_P2;Temp;Humidity;BMP_temperature;BMP_pressure;BME280_temperature;BME280_humidity;BME280_pressure;Samples;Min_cycle;Max_cycle;Signal;HPM_P1;HPM_P2
2021/07/21 00:02:44;;;;;;;13.57;10.00;;;;;;;24.52;100.00;100598.66;4939765;29;20105;-70
2021/07/21 00:05:29;;;;;;;12.07;10.07;;;;;;;24.43;100.00;100587.81;4939220;29;20098;-69
2021/07/21 00:08:16;;;;;;;14.52;10.25;;;;;;;24.55;100.00;100598.41;4938804;29;20028;-70
2021/07/21 00:14:21;;;;;;;14.05;10.35;;;;;;;24.48;100.00;100604.38;4940425;29;20405;-69
2021/07/21 00:17:18;;;;;;;12.35;9.75;;;;;;;24.64;100.00;100605.81;4938903;29;20030;-69
2021/07/21 00:20:10;;;;;;;15.65;10.00;;;;;;;24.54;100.00;100606.56;4939532;29;20031;-70
2021/07/21 00:22:55;;;;;;;12.85;9.93;;;;;;;24.73;100.00;100614.94;4940993;29;20126;-69
2021/07/21 00:25:41;;;;;;;10.45;9.35;;;;;;;24.67;100.00;100607.38;4939681;29;20040;-70
2021/07/21 00:28:27;;;;;;;11.95;9.77;;;;;;;24.79;100.00;100614.47;4939781;29;20027;-69
2021/07/21 00:31:17;;;;;;;14.77;10.38;;;;;;;24.71;100.00;100609.69;4925688;29;20039;-70
2021/07/21 00:34:03;;;;;;;14.07;9.90;;;;;;;24.69;100.00;100613.47;4939319;29;20449;-70
2021/07/21 00:36:49;;;;;;;12.95;9.68;;;;;;;24.59;100.00;100612.44;4939452;29;20456;-70
2021/07/21 00:39:34;;;;;;;14.95;9.95;;;;;;;24.37;100.00;100613.22;4939652;29;20059;-70
2021/07/21 00:42:20;;;;;;;15.15;10.80;;;;;;;24.26;100.00;100610.50;4939455;29;20369;-70
2021/07/21 00:45:07;;;;;;;13.27;10.07;;;;;;;24.37;100.00;100615.03;4939701;29;20543;-69
2021/07/21 00:47:53;;;;;;;12.73;10.55;;;;;;;24.28;100.00;100613.94;4939968;29;20114;-70
2021/07/21 00:50:39;;;;;;;11.85;10.02;;;;;;;24.38;100.00;100614.06;4938513;29;20028;-69
2021/07/21 00:53:25;;;;;;;12.77;10.73;;;;;;;24.28;100.00;100616.59;4925376;29;20488;-70
2021/07/21 00:56:13;;;;;;;14.40;11.18;;;;;;;24.45;100.00;100612.63;4939284;29;20043;-69
2021/07/21 00:58:59;;;;;;;16.02;11.52;;;;;;;24.42;100.00;100620.88;4925924;29;20489;-69
2021/07/21 01:01:44;;;;;;;12.65;10.68;;;;;;;24.40;100.00;100620.16;4938039;29;20039;-69
2021/07/21 01:04:32;;;;;;;14.68;11.20;;;;;;;24.31;100.00;100620.88;4938902;29;20058;-69
2021/07/21 01:07:18;;;;;;;12.48;11.18;;;;;;;23.96;100.00;100617.28;4924621;29;20042;-69
2021/07/21 01:10:05;;;;;;;14.38;11.52;;;;;;;23.99;100.00;100612.56;4938375;29;20115;-69
2021/07/21 01:13:01;;;;;;;15.20;11.85;;;;;;;24.12;100.00;100621.41;4938835;29;20059;-70
2021/07/21 01:16:05;;;;;;;13.50;11.50;;;;;;;24.22;100.00;100616.22;4939809;29;20063;-69
2021/07/21 01:18:59;;;;;;;13.63;10.60;;;;;;;24.20;100.00;100616.31;4939177;29;20031;-70
2021/07/21 01:21:45;;;;;;;13.52;10.82;;;;;;;24.37;100.00;100615.03;4939742;29;20452;-69
2021/07/21 01:24:45;;;;;;;15.88;11.80;;;;;;;24.10;100.00;100620.66;4938068;29;20031;-69
2021/07/21 01:27:31;;;;;;;16.40;11.50;;;;;;;24.28;100.00;100616.59;4938738;29;20032;-69
2021/07/21 01:30:20;;;;;;;20.58;12.70;;;;;;;23.79;100.00;100615.81;4937598;29;20094;-69
2021/07/21 01:33:13;;;;;;;19.98;12.40;;;;;;;23.70;100.00;100608.47;4938464;29;20028;-70
2021/07/21 01:36:05;;;;;;;16.60;12.20;;;;;;;23.71;100.00;100609.31;4937942;29;20151;-70
2021/07/21 01:39:03;;;;;;;15.82;12.82;;;;;;;23.93;100.00;100614.81;4939524;29;20059;-70
2021/07/21 01:41:53;;;;;;;15.35;12.27;;;;;;;24.02;100.00;100617.69;4938880;29;20031;-70
2021/07/21 01:44:43;;;;;;;15.13;12.68;;;;;;;24.06;100.00;100621.84;4939177;29;20036;-70
2021/07/21 01:47:33;;;;;;;17.83;12.52;;;;;;;23.43;100.00;100619.34;4938867;29;20043;-70
2021/07/21 01:50:19;;;;;;;17.80;12.80;;;;;;;23.57;100.00;100615.69;4924800;29;20028;-70
2021/07/21 01:53:05;;;;;;;18.13;12.95;;;;;;;23.73;100.00;100621.63;4937875;29;20027;-70
2021/07/21 01:55:53;;;;;;;17.48;13.73;;;;;;;23.81;100.00;100618.38;4936619;29;20031;-70
2021/07/21 01:58:39;;;;;;;16.90;13.10;;;;;;;23.72;100.00;100619.06;4938833;29;20413;-70
2021/07/21 02:01:28;;;;;;;18.88;13.57;;;;;;;23.83;100.00;100624.50;4937859;29;20036;-70
2021/07/21 02:04:14;;;;;;;16.45;13.85;;;;;;;23.74;100.00;100630.53;4923787;29;20028;-70
2021/07/21 02:07:01;;;;;;;17.75;13.63;;;;;;;23.42;100.00;100634.66;4937089;29;20486;-70
2021/07/21 02:09:48;;;;;;;18.20;13.57;;;;;;;23.51;100.00;100642.00;4938336;29;20111;-70
2021/07/21 02:12:37;;;;;;;15.50;12.70;;;;;;;23.24;100.00;100639.50;4936990;29;20063;-70
2021/07/21 02:15:24;;;;;;;16.02;12.55;;;;;;;23.44;100.00;100637.09;4938299;29;20119;-70
2021/07/21 02:18:11;;;;;;;20.20;13.80;;;;;;;23.39;100.00;100638.41;4937304;29;20028;-70
2021/07/21 02:21:00;;;;;;;15.55;12.88;;;;;;;23.33;100.00;100637.03;4924062;29;20166;-70
2021/07/21 02:23:47;;;;;;;19.30;13.23;;;;;;;23.44;100.00;100638.94;4938493;29;20027;-69
2021/07/21 02:26:39;;;;;;;17.95;13.48;;;;;;;23.54;100.00;100641.81;4937064;29;20035;-69
2021/07/21 02:29:26;;;;;;;19.73;14.20;;;;;;;23.20;100.00;100638.84;4938103;29;20063;-69
2021/07/21 02:32:18;;;;;;;18.27;13.82;;;;;;;22.99;100.00;100644.81;4924023;29;20063;-70
2021/07/21 02:35:04;;;;;;;19.98;14.00;;;;;;;22.96;100.00;100640.56;4923096;29;20027;-70
2021/07/21 02:37:51;;;;;;;21.50;14.25;;;;;;;23.34;100.00;100641.41;4937166;29;20032;-70
2021/07/21 02:40:37;;;;;;;18.42;13.15;;;;;;;23.03;100.00;100644.47;4937125;29;20091;-70
2021/07/21 02:43:23;;;;;;;17.83;14.80;;;;;;;23.06;100.00;100644.28;4937448;29;20027;-70
2021/07/21 02:46:10;;;;;;;18.70;14.80;;;;;;;23.19;100.00;100646.97;4937957;29;20024;-71
2021/07/21 02:48:57;;;;;;;20.70;14.13;;;;;;;22.95;100.00;100649.50;4936991;29;20341;-70
2021/07/21 02:51:49;;;;;;;21.77;14.68;;;;;;;22.99;100.00;100661.69;4923010;29;20123;-70
2021/07/21 02:54:53;;;;;;;18.95;14.57;;;;;;;23.18;100.00;100647.91;4936777;29;20023;-70
2021/07/21 02:57:49;;;;;;;21.55;15.05;;;;;;;23.26;100.00;100650.91;4937633;29;20097;-70
2021/07/21 03:00:36;;;;;;;23.92;15.48;;;;;;;23.29;100.00;100659.59;4923119;29;20036;-70
2021/07/21 03:03:22;;;;;;;19.73;15.85;;;;;;;23.57;100.00;100662.97;4938534;29;20038;-70
2021/07/21 03:06:09;;;;;;;21.33;14.98;;;;;;;23.47;100.00;100660.13;4944520;29;20031;-70
2021/07/21 03:08:55;;;;;;;22.65;15.75;;;;;;;23.43;100.00;100670.16;4938019;29;20345;-69
2021/07/21 03:11:44;;;;;;;21.30;15.52;;;;;;;23.44;100.00;100663.00;4937085;29;20387;-69
2021/07/21 03:14:30;;;;;;;20.27;14.48;;;;;;;23.31;100.00;100668.34;4937166;29;20028;-69
2021/07/21 03:17:16;;;;;;;23.95;16.58;;;;;;;23.12;100.00;100667.06;4937473;29;20062;-69
2021/07/21 03:20:05;;;;;;;21.33;15.68;;;;;;;23.01;100.00;100670.47;4937811;29;20027;-69
2021/07/21 03:22:55;;;;;;;21.73;15.05;;;;;;;22.72;100.00;100679.63;4936662;29;20035;-69
2021/07/21 03:25:42;;;;;;;20.05;16.23;;;;;;;22.85;100.00;100675.16;4941213;29;20326;-69
2021/07/21 03:28:30;;;;;;;21.42;15.27;;;;;;;22.88;100.00;100680.31;4941919;29;20046;-69
2021/07/21 03:31:18;;;;;;;20.70;15.80;;;;;;;23.02;100.00;100682.00;4940025;29;20031;-70
2021/07/21 03:34:07;;;;;;;19.08;15.02;;;;;;;23.04;100.00;100686.31;4941324;29;20035;-70
2021/07/21 03:36:55;;;;;;;20.13;16.27;;;;;;;22.91;100.00;100685.41;4939685;29;20114;-69
2021/07/21 03:39:43;;;;;;;21.80;14.75;;;;;;;23.10;100.00;100688.53;4940614;29;20032;-69
2021/07/21 03:42:29;;;;;;;19.55;14.82;;;;;;;23.38;100.00;100689.31;4939396;29;20038;-69
2021/07/21 03:45:15;;;;;;;18.40;14.18;;;;;;;23.22;100.00;100695.75;4939860;29;20414;-69
2021/07/21 03:48:01;;;;;;;19.20;14.77;;;;;;;23.32;100.00;100693.28;4940600;29;20039;-69
2021/07/21 03:50:48;;;;;;;20.10;14.88;;;;;;;23.14;100.00;100702.53;4941475;29;20035;-69
2021/07/21 03:53:34;;;;;;;19.52;14.45;;;;;;;23.03;100.00;100702.44;4944886;29;20046;-70
2021/07/21 03:56:20;;;;;;;21.05;14.50;;;;;;;23.31;100.00;100708.47;4948152;29;20114;-70
2021/07/21 03:59:07;;;;;;;24.15;15.57;;;;;;;23.54;100.00;100703.31;4949385;29;20064;-69
2021/07/21 04:01:55;;;;;;;20.60;15.02;;;;;;;23.31;100.00;100708.47;4940010;29;20035;-69
2021/07/21 04:04:44;;;;;;;19.77;14.07;;;;;;;23.08;100.00;100716.34;4941245;29;20027;-68
2021/07/21 04:07:29;;;;;;;19.17;14.50;;;;;;;23.30;100.00;100706.75;4925718;29;20032;-69
2021/07/21 04:10:16;;;;;;;22.83;14.70;;;;;;;23.02;100.00;100714.94;4938892;29;20056;-69
2021/07/21 04:13:02;;;;;;;22.17;14.82;;;;;;;23.42;100.00;100714.88;4940526;29;20039;-69
2021/07/21 04:15:50;;;;;;;20.67;14.35;;;;;;;23.32;100.00;100718.19;4939427;29;20028;-69
2021/07/21 04:18:37;;;;;;;21.23;15.05;;;;;;;23.31;100.00;100712.97;4939299;29;20398;-70
2021/07/21 04:21:23;;;;;;;21.20;15.05;;;;;;;23.09;100.00;100705.53;4939249;29;20142;-69
2021/07/21 04:24:10;;;;;;;23.13;15.27;;;;;;;23.38;100.00;100710.72;4938580;29;20094;-69
2021/07/21 04:26:57;;;;;;;20.25;14.52;;;;;;;23.32;100.00;100720.84;4939745;29;20023;-69
2021/07/21 04:29:46;;;;;;;22.65;15.15;;;;;;;23.26;100.00;100720.44;4938855;29;20028;-69
2021/07/21 04:32:32;;;;;;;19.33;14.25;;;;;;;23.51;100.00;100704.41;4939850;29;20099;-69
2021/07/21 04:35:19;;;;;;;18.98;15.50;;;;;;;23.92;100.00;100712.16;4939992;29;20028;-70
2021/07/21 04:38:06;;;;;;;21.25;14.73;;;;;;;23.77;100.00;100713.22;4939495;29;20035;-69
2021/07/21 04:40:53;;;;;;;22.80;14.38;;;;;;;23.79;100.00;100714.81;4939474;29;20032;-69
2021/07/21 04:43:39;;;;;;;22.45;14.40;;;;;;;24.04;100.00;100716.63;4939938;29;20171;-68
2021/07/21 04:46:25;;;;;;;22.33;15.27;;;;;;;23.59;100.00;100703.84;4925307;29;20036;-70
2021/07/21 04:49:16;;;;;;;22.23;14.60;;;;;;;24.05;100.00;100710.28;4939485;29;20038;-70
2021/07/21 04:52:04;;;;;;;21.08;14.77;;;;;;;23.60;100.00;100703.75;4939300;29;20027;-70
2021/07/21 04:54:50;;;;;;;21.70;14.95;;;;;;;23.96;100.00;100719.88;4939676;29;20487;-70
2021/07/21 04:57:36;;;;;;;21.08;15.50;;;;;;;24.05;100.00;100729.91;4939939;29;20042;-70
2021/07/21 05:00:21;;;;;;;22.13;15.68;;;;;;;24.04;100.00;100732.69;4939391;29;20376;-70
2021/07/21 05:03:09;;;;;;;22.10;15.60;;;;;;;23.90;100.00;100725.63;4938654;29;20024;-70
2021/07/21 05:05:55;;;;;;;22.33;15.20;;;;;;;24.24;100.00;100729.41;4938644;29;20114;-69
2021/07/21 05:08:42;;;;;;;20.55;15.35;;;;;;;24.09;100.00;100730.53;4939377;29;20381;-69
2021/07/21 05:11:28;;;;;;;20.13;15.65;;;;;;;23.91;100.00;100734.50;4938236;29;20476;-69
2021/07/21 05:14:14;;;;;;;24.05;15.32;;;;;;;23.79;100.00;100744.25;4924862;29;20031;-69
2021/07/21 05:17:00;;;;;;;20.75;15.02;;;;;;;24.14;100.00;100750.63;4924375;29;20024;-69
2021/07/21 05:19:45;;;;;;;23.98;15.88;;;;;;;24.41;100.00;100748.63;4936858;29;20067;-69
2021/07/21 05:22:31;;;;;;;25.58;17.23;;;;;;;24.81;100.00;100749.19;4937871;29;20059;-69
2021/07/21 05:25:18;;;;;;;24.70;15.45;;;;;;;24.92;100.00;100744.75;4943740;29;20027;-69
2021/07/21 05:28:08;;;;;;;22.75;15.30;;;;;;;24.69;100.00;100753.69;4945815;29;20126;-69
2021/07/21 05:30:54;;;;;;;26.95;15.50;;;;;;;24.89;100.00;100755.72;4938132;29;20039;-69
2021/07/21 05:33:39;;;;;;;22.75;14.75;;;;;;;25.04;100.00;100751.00;4937726;29;20087;-69
2021/07/21 05:36:25;;;;;;;26.05;15.32;;;;;;;25.11;100.00;100750.41;4936682;29;20103;-69
2021/07/21 05:39:11;;;;;;;21.45;14.75;;;;;;;25.13;100.00;100752.97;4937988;29;20114;-69
2021/07/21 05:41:57;;;;;;;22.05;14.68;;;;;;;24.96;100.00;100753.41;4937144;29;20103;-69
2021/07/21 05:44:43;;;;;;;20.42;13.90;;;;;;;24.76;100.00;100764.78;4924488;29;20034;-70
2021/07/21 05:47:28;;;;;;;20.65;14.52;;;;;;;25.12;100.00;100765.50;4937742;29;20432;-70
2021/07/21 05:50:14;;;;;;;22.63;14.32;;;;;;;25.57;100.00;100767.38;4937797;29;20039;-69
2021/07/21 05:53:00;;;;;;;22.55;14.60;;;;;;;25.58;100.00;100761.03;4937189;29;20032;-70
2021/07/21 05:55:46;;;;;;;20.30;14.13;;;;;;;25.47;100.00;100755.63;4936573;29;20157;-70
2021/07/21 05:59:09;;;;;;;20.15;14.65;;;;;;;25.20;100.00;100755.06;4938394;29;20035;-71
2021/07/21 06:01:58;;;;;;;17.85;13.82;;;;;;;25.47;100.00;100768.22;4937673;29;20023;-71
2021/07/21 06:04:44;;;;;;;22.88;14.63;;;;;;;25.66;100.00;100763.09;4936864;29;20035;-70
2021/07/21 06:07:29;;;;;;;19.02;13.93;;;;;;;25.71;100.00;100759.06;4936965;29;20032;-71
2021/07/21 06:10:15;;;;;;;20.95;14.43;;;;;;;26.01;100.00;100758.50;4899285;29;1142786;-69
2021/07/21 06:13:01;;;;;;;28.02;14.60;;;;;;;25.80;100.00;100766.38;4923309;29;20106;-70
2021/07/21 06:15:47;;;;;;;21.10;14.27;;;;;;;26.02;100.00;100768.25;4937166;29;20027;-70
2021/07/21 06:18:34;;;;;;;16.08;13.90;;;;;;;26.20;100.00;100769.47;4936665;29;20023;-71
2021/07/21 06:21:23;;;;;;;21.85;14.43;;;;;;;26.21;100.00;100760.41;4938208;29;20031;-70
2021/07/21 06:24:09;;;;;;;22.63;14.52;;;;;;;26.32;100.00;100763.94;4938619;29;20099;-70
2021/07/21 06:26:56;;;;;;;21.20;14.32;;;;;;;26.42;100.00;100762.22;4937149;29;20406;-70
2021/07/21 06:29:42;;;;;;;20.88;14.07;;;;;;;26.09;100.00;100758.72;4937014;29;20037;-70
2021/07/21 06:32:27;;;;;;;20.08;13.65;;;;;;;26.25;100.00;100768.13;4937568;29;20118;-71
2021/07/21 06:35:13;;;;;;;27.45;14.18;;;;;;;26.67;100.00;100766.44;4936429;29;20449;-70
2021/07/21 06:37:59;;;;;;;27.83;13.60;;;;;;;26.51;100.00;100760.59;4936365;29;20059;-70
2021/07/21 06:40:46;;;;;;;23.27;13.30;;;;;;;26.63;100.00;100765.84;4937823;29;20413;-71
2021/07/21 06:43:31;;;;;;;24.00;14.00;;;;;;;26.53;100.00;100756.78;4935867;29;20039;-70
2021/07/21 06:46:17;;;;;;;17.23;13.80;;;;;;;26.26;100.00;100758.22;4937522;29;20028;-70
2021/07/21 06:49:03;;;;;;;18.85;13.23;;;;;;;26.65;100.00;100763.03;4936410;29;20132;-70
2021/07/21 06:51:49;;;;;;;19.40;13.38;;;;;;;26.73;100.00;100764.09;4937052;29;20110;-71
2021/07/21 06:54:35;;;;;;;20.40;13.52;;;;;;;26.85;100.00;100757.69;4936198;29;20036;-69
2021/07/21 06:57:22;;;;;;;21.45;13.80;;;;;;;27.01;100.00;100757.25;4938324;29;20038;-70
2021/07/21 07:00:08;;;;;;;21.83;14.45;;;;;;;27.19;100.00;100758.38;4941326;29;20028;-70
2021/07/21 07:02:54;;;;;;;19.48;13.25;;;;;;;27.21;100.00;100759.97;4941220;29;20024;-70
2021/07/21 07:05:40;;;;;;;19.10;13.80;;;;;;;27.64;100.00;100757.09;4956170;29;20484;-70
2021/07/21 07:08:27;;;;;;;17.33;13.35;;;;;;;27.49;100.00;100756.59;4943666;29;20031;-69
2021/07/21 07:11:12;;;;;;;20.60;12.50;;;;;;;27.46;100.00;100753.34;4942164;29;20047;-69
2021/07/21 07:13:59;;;;;;;19.20;12.68;;;;;;;27.38;100.00;100753.16;4927017;29;20027;-69
2021/07/21 07:16:48;;;;;;;17.02;12.63;;;;;;;27.68;100.00;100752.31;4940288;29;20103;-69
2021/07/21 07:19:34;;;;;;;16.08;11.93;;;;;;;27.69;100.00;100748.63;4926843;29;20303;-69
2021/07/21 07:22:22;;;;;;;21.20;12.88;;;;;;;27.92;100.00;100755.59;4940543;29;20082;-69
2021/07/21 07:25:09;;;;;;;16.05;11.95;;;;;;;28.20;100.00;100760.22;4939853;29;20039;-70
2021/07/21 07:27:55;;;;;;;30.45;12.98;;;;;;;28.15;100.00;100757.06;4940717;29;20027;-70
2021/07/21 07:30:41;;;;;;;18.63;11.95;;;;;;;28.20;100.00;100755.66;4940500;29;20028;-69
2021/07/21 07:33:26;;;;;;;14.95;11.90;;;;;;;28.21;100.00;100762.75;4940261;29;20027;-70
2021/07/21 07:36:13;;;;;;;16.63;11.50;;;;;;;28.20;100.00;100761.06;4940849;29;20024;-70
2021/07/21 07:38:59;;;;;;;20.35;12.00;;;;;;;28.26;100.00;100760.53;4939843;29;20059;-71
2021/07/21 07:41:44;;;;;;;21.42;12.15;;;;;;;28.55;100.00;100756.06;4939483;29;20096;-69
2021/07/21 07:44:31;;;;;;;16.88;11.23;;;;;;;28.94;100.00;100751.53;4939623;29;20019;-69
2021/07/21 07:47:17;;;;;;;19.02;11.68;;;;;;;29.17;100.00;100761.06;4926844;29;20137;-70
2021/07/21 07:50:05;;;;;;;16.85;11.30;;;;;;;28.87;100.00;100753.09;4939131;29;20035;-71
2021/07/21 07:52:54;;;;;;;16.92;11.40;;;;;;;29.06;100.00;100753.13;4941527;29;20420;-71
2021/07/21 07:55:59;;;;;;;19.15;11.27;;;;;;;29.25;100.00;100755.81;4940942;29;20031;-73
2021/07/21 07:58:45;;;;;;;15.23;11.60;;;;;;;29.01;100.00;100761.63;4941912;29;20038;-71
2021/07/21 08:01:30;;;;;;;18.83;11.43;;;;;;;29.84;97.00;100757.22;4940900;29;20031;-70
2021/07/21 08:04:17;;;;;;;17.20;11.40;;;;;;;30.01;93.65;100756.44;4939350;29;20039;-71
2021/07/21 08:07:03;;;;;;;16.27;11.52;;;;;;;29.73;95.27;100759.28;4940485;29;20032;-72
2021/07/21 08:09:49;;;;;;;13.25;11.13;;;;;;;30.05;96.95;100757.84;4938649;29;20051;-70
2021/07/21 08:12:34;;;;;;;17.70;11.50;;;;;;;30.12;93.48;100760.78;4939739;29;20035;-71
2021/07/21 08:15:21;;;;;;;18.60;11.15;;;;;;;30.26;91.33;100765.75;4925596;29;20039;-71
2021/07/21 08:18:06;;;;;;;18.83;11.35;;;;;;;30.34;91.99;100758.56;4940071;29;20038;-70
2021/07/21 08:20:52;;;;;;;17.65;11.00;;;;;;;30.43;91.25;100762.22;4938481;29;20526;-70
2021/07/21 08:23:38;;;;;;;17.20;10.82;;;;;;;30.77;89.50;100768.69;4939643;29;20035;-70
2021/07/21 08:26:24;;;;;;;20.92;11.65;;;;;;;30.83;88.04;100749.97;4938550;29;20066;-70
2021/07/21 08:29:10;;;;;;;20.48;13.10;;;;;;;31.21;87.94;100759.59;4940095;29;20035;-71
2021/07/21 08:31:56;;;;;;;18.75;12.23;;;;;;;31.29;86.67;100762.41;4939426;29;20028;-70
2021/07/21 08:34:41;;;;;;;17.30;11.80;;;;;;;31.32;84.82;100759.38;4938979;29;20115;-70
2021/07/21 08:37:27;;;;;;;30.55;12.40;;;;;;;31.28;83.38;100764.28;4937795;29;20102;-71
2021/07/21 08:40:14;;;;;;;19.10;11.48;;;;;;;31.17;84.90;100764.50;4925749;29;20047;-71
2021/07/21 08:43:00;;;;;;;31.45;12.02;;;;;;;31.81;80.68;100760.59;4939775;29;20028;-70
2021/07/21 08:45:46;;;;;;;25.25;11.75;;;;;;;31.49;82.51;100757.66;4939646;29;20028;-70
2021/07/21 08:48:32;;;;;;;22.20;11.65;;;;;;;31.50;81.54;100759.34;4937987;29;20020;-71
2021/07/21 08:51:21;;;;;;;20.88;12.48;;;;;;;32.10;79.94;100756.47;4938439;29;20034;-71
2021/07/21 08:54:08;;;;;;;26.33;12.20;;;;;;;31.42;81.32;100754.69;4938391;29;20036;-70
2021/07/21 08:56:56;;;;;;;19.05;11.57;;;;;;;31.37;79.55;100754.34;4939702;29;20023;-72
2021/07/21 08:59:43;;;;;;;18.30;11.20;;;;;;;31.81;78.07;100755.19;4938594;29;20035;-69
2021/07/21 09:02:32;;;;;;;14.10;10.70;;;;;;;31.55;78.79;100743.47;4939667;29;20046;-71
2021/07/21 09:05:18;;;;;;;19.02;11.93;;;;;;;31.42;80.50;100752.00;4938652;29;20032;-70
2021/07/21 09:08:04;;;;;;;15.32;11.85;;;;;;;31.59;77.74;100752.97;4925441;29;20027;-72
2021/07/21 09:10:50;;;;;;;15.93;10.52;;;;;;;31.93;73.96;100749.28;4939299;29;20075;-71
2021/07/21 09:13:37;;;;;;;15.35;11.23;;;;;;;31.52;77.42;100747.34;4937337;29;20559;-72
2021/07/21 09:16:23;;;;;;;18.75;10.90;;;;;;;31.45;76.08;100751.69;4939519;29;20031;-71
2021/07/21 09:19:11;;;;;;;18.58;10.73;;;;;;;31.15;71.63;100744.81;4938617;29;20031;-71
2021/07/21 09:22:12;;;;;;;17.83;10.38;;;;;;;31.57;70.94;100745.00;4936449;29;20467;-71
2021/07/21 09:25:28;;;;;;;16.35;10.43;;;;;;;30.97;77.49;100735.03;4937944;29;20413;-71
2021/07/21 09:28:14;;;;;;;20.52;10.77;;;;;;;30.47;76.90;100741.97;4936522;29;20385;-72
2021/07/21 09:31:01;;;;;;;13.30;10.43;;;;;;;30.77;71.12;100749.75;4937742;29;20031;-72
2021/07/21 09:33:46;;;;;;;16.83;9.98;;;;;;;31.03;67.70;100754.19;4937574;29;20036;-72
2021/07/21 09:36:32;;;;;;;14.80;9.88;;;;;;;30.74;68.21;100740.06;4937711;29;20019;-72
2021/07/21 09:39:19;;;;;;;21.38;9.90;;;;;;;30.98;70.11;100743.00;4938191;29;20070;-72
2021/07/21 09:42:07;;;;;;;14.52;9.93;;;;;;;31.05;70.44;100735.97;4938161;29;20042;-72
2021/07/21 09:44:53;;;;;;;15.27;9.98;;;;;;;31.28;65.89;100731.78;4938867;29;20031;-71
2021/07/21 09:47:48;;;;;;;14.02;9.57;;;;;;;31.45;65.83;100730.00;4938401;29;20512;-72
2021/07/21 09:50:37;;;;;;;15.43;9.73;;;;;;;31.93;62.87;100722.19;4937991;29;20035;-72
2021/07/21 09:53:23;;;;;;;15.48;9.93;;;;;;;31.78;62.19;100725.69;4938084;29;20106;-72
2021/07/21 09:56:09;;;;;;;12.20;9.68;;;;;;;31.99;63.07;100723.41;4937900;29;20035;-73
2021/07/21 09:59:25;;;;;;;14.27;9.45;;;;;;;31.81;63.51;100709.94;4938452;29;20042;-72
2021/07/21 10:02:15;;;;;;;18.75;9.40;;;;;;;31.87;63.02;100716.56;4936952;29;20028;-71
2021/07/21 10:05:05;;;;;;;16.02;9.95;;;;;;;31.91;61.87;100707.09;4938246;29;20043;-71
2021/07/21 10:07:51;;;;;;;13.23;9.23;;;;;;;32.06;61.82;100722.56;4937490;29;20028;-71
2021/07/21 10:10:37;;;;;;;17.55;10.07;;;;;;;31.96;61.43;100707.44;4937077;29;20476;-71
2021/07/21 10:13:34;;;;;;;155.50;14.98;;;;;;;31.82;62.30;100708.91;4937047;29;20027;-71
2021/07/21 10:16:43;;;;;;;18.33;9.82;;;;;;;32.13;60.95;100701.91;4923977;29;20034;-71
2021/07/21 10:19:29;;;;;;;15.07;9.77;;;;;;;31.53;61.23;100700.25;4937350;29;20023;-71
2021/07/21 10:22:15;;;;;;;21.17;10.23;;;;;;;31.40;62.92;100694.44;4938348;29;20102;-71
2021/07/21 10:25:01;;;;;;;21.52;10.18;;;;;;;31.02;64.42;100690.25;4923914;29;20114;-71
2021/07/21 10:27:47;;;;;;;20.95;9.43;;;;;;;31.48;63.46;100685.50;4924189;29;20409;-72
2021/07/21 10:30:34;;;;;;;16.58;9.40;;;;;;;31.70;63.57;100679.53;4937463;29;20038;-70
2021/07/21 10:33:20;;;;;;;22.73;10.55;;;;;;;31.48;64.09;100677.38;4936222;29;20118;-71
2021/07/21 10:36:08;;;;;;;21.83;9.88;;;;;;;31.79;61.20;100690.28;4923429;29;20031;-72
2021/07/21 10:38:54;;;;;;;19.20;10.18;;;;;;;31.55;57.76;100686.56;4937358;29;20452;-70
2021/07/21 10:41:42;;;;;;;48.35;11.50;;;;;;;31.65;57.39;100687.31;4936552;29;20046;-70
2021/07/21 10:44:27;;;;;;;14.98;9.02;;;;;;;31.90;57.13;100679.13;4936863;29;20472;-72
2021/07/21 10:47:24;;;;;;;14.48;9.43;;;;;;;31.99;57.73;100680.03;4937553;29;20035;-71
2021/07/21 10:50:39;;;;;;;16.13;10.18;;;;;;;32.13;54.70;100682.09;4936508;29;20038;-71
2021/07/21 10:59:41;;;;;;;14.65;10.65;;;;;;;32.03;53.99;100684.09;4937232;29;20048;-71
2021/07/21 11:02:30;;;;;;;18.60;10.32;;;;;;;32.03;52.04;100687.66;4937783;29;20449;-72
2021/07/21 11:05:36;;;;;;;22.38;10.35;;;;;;;32.16;50.83;100688.03;4937958;29;20466;-71
2021/07/21 11:08:24;;;;;;;14.65;10.23;;;;;;;32.22;51.92;100676.53;4937529;29;20027;-72
2021/07/21 11:11:17;;;;;;;15.55;10.38;;;;;;;32.28;52.45;100681.28;4936778;29;20111;-71
2021/07/21 11:14:16;;;;;;;15.32;10.68;;;;;;;32.37;50.48;100674.03;4923088;29;20532;-72
2021/07/21 11:17:10;;;;;;;21.02;10.75;;;;;;;32.64;49.19;100687.31;4936525;29;20032;-72
2021/07/21 11:19:57;;;;;;;16.52;10.68;;;;;;;32.68;48.55;100683.25;4936829;29;20484;-72
2021/07/21 11:22:42;;;;;;;18.65;10.32;;;;;;;32.69;48.03;100669.50;4936245;29;20035;-71
2021/07/21 11:25:28;;;;;;;17.20;9.90;;;;;;;32.33;50.00;100683.53;4935667;29;20039;-72
2021/07/21 11:28:28;;;;;;;21.55;10.25;;;;;;;32.67;46.31;100670.69;4937522;29;20440;-72
2021/07/21 11:31:14;;;;;;;14.00;9.68;;;;;;;32.31;47.97;100667.44;4936186;29;20074;-72
2021/07/21 11:34:07;;;;;;;15.20;10.13;;;;;;;32.56;48.07;100669.16;4937173;29;20058;-71
2021/07/21 11:36:57;;;;;;;15.05;10.30;;;;;;;32.33;48.28;100668.09;4936366;29;20493;-71
2021/07/21 11:39:57;;;;;;;20.33;10.75;;;;;;;32.55;49.13;100662.06;4936821;29;20054;-71
2021/07/21 11:42:46;;;;;;;26.67;11.43;;;;;;;32.80;49.06;100662.88;4937295;29;20406;-71
2021/07/21 11:45:31;;;;;;;37.17;11.43;;;;;;;32.32;49.86;100650.16;4925517;29;20028;-72
2021/07/21 11:48:18;;;;;;;34.50;11.50;;;;;;;32.69;49.54;100658.66;4939471;29;20491;-72
2021/07/21 11:51:10;;;;;;;20.60;11.07;;;;;;;32.43;48.95;100654.41;4926023;29;20079;-72
2021/07/21 11:53:56;;;;;;;28.73;11.13;;;;;;;32.60;49.36;100654.25;4926669;29;20024;-72
2021/07/21 11:56:42;;;;;;;18.80;10.50;;;;;;;32.86;49.63;100660.38;4939822;29;20020;-71
2021/07/21 11:59:33;;;;;;;19.23;10.70;;;;;;;32.36;49.99;100648.78;4939756;29;20043;-70
2021/07/21 12:02:19;;;;;;;17.55;10.93;;;;;;;32.79;50.38;100658.47;4939709;29;20103;-70
2021/07/21 12:05:08;;;;;;;16.73;11.15;;;;;;;32.69;51.27;100647.78;4939918;29;20118;-70
2021/07/21 12:08:03;;;;;;;15.07;10.75;;;;;;;32.56;51.16;100652.88;4939041;29;20487;-70
2021/07/21 12:10:52;;;;;;;17.08;10.57;;;;;;;32.62;47.95;100651.38;4939387;29;20047;-70
2021/07/21 12:13:39;;;;;;;16.90;10.48;;;;;;;32.04;50.67;100650.53;4939698;29;20034;-70
2021/07/21 12:16:26;;;;;;;21.10;10.18;;;;;;;32.11;50.42;100654.31;4939219;29;20073;-70
2021/07/21 12:19:12;;;;;;;24.48;11.55;;;;;;;31.79;53.11;100648.78;4939229;29;20465;-70
2021/07/21 12:22:16;;;;;;;17.13;11.05;;;;;;;32.01;53.55;100650.91;4925768;29;20027;-70
2021/07/21 12:25:14;;;;;;;20.15;11.32;;;;;;;31.96;54.88;100651.38;4940267;29;20317;-71
2021/07/21 12:28:00;;;;;;;22.25;11.77;;;;;;;31.88;55.88;100650.50;4940344;29;20038;-70
2021/07/21 12:30:47;;;;;;;18.50;11.65;;;;;;;31.85;53.40;100650.84;4939118;29;20032;-70
2021/07/21 12:33:33;;;;;;;16.38;10.82;;;;;;;31.83;51.63;100636.59;4938739;29;20114;-70
2021/07/21 12:36:19;;;;;;;21.80;10.52;;;;;;;32.31;48.65;100642.16;4939808;29;20059;-70
2021/07/21 12:39:05;;;;;;;15.30;10.27;;;;;;;32.66;47.87;100641.88;4939427;29;20059;-70
2021/07/21 12:41:51;;;;;;;17.92;10.70;;;;;;;32.61;49.63;100641.50;4938384;29;20035;-70
2021/07/21 12:44:54;;;;;;;14.35;10.30;;;;;;;33.04;48.99;100650.19;4938236;29;20053;-70
2021/07/21 12:47:46;;;;;;;18.67;9.88;;;;;;;33.08;46.82;100637.09;4939901;29;20031;-70
2021/07/21 12:50:34;;;;;;;15.05;10.32;;;;;;;33.14;45.85;100636.41;4939429;29;20055;-70